カイエンヌ の空港の天気 - METARとTAF

カイエンヌ/ロシャンボー空港 ( SOCA / CAY ) - フランス領ギアナ カイエンヌ
飛行場実況気象(Metar)
観測時間08/18 21:00 GFT (08/19 00:00 UTC)
風向・風速静穏 0m/s
視程10km以上
天気現象
全天の4割程度の雲 雲底高度 550m
気温25℃
湿度94%
気圧1015hPa
METARSOCA 190000Z AUTO 00000KT 9999 SCT018 25/24 Q1015 TEMPO 3000 SHRA SCT010TCU BKN015
過去の天気等 Google飛行場航空写真 Wunderground天気予報

過去48時間のMETAR

飛行場予報(TAF)
発表時間: 8/18 19:00 GFT (8/18 22:00 UTC)
予報対象時間: 18日21時 GFT ~ 19日21時 GFT
風向・風速不定 2m/s
視程10km以上
全天の4割程度の雲 雲底高度 700m
18日21時 GFT ~ 19日6時 GFT に一時的に
視程3000m
天気現象しゅう雨
全天の4割程度の塔状積雲 雲底高度 300m
全天の8割程度の雲 雲底高度 460m
19日10時 GFT から
風向・風速東 7m/s
視程10km以上
全天の4割程度の雲 雲底高度 980m
19日20時 GFT から
風向・風速東 3m/s
視程10km以上
なし
TAF SOCA 182200Z 1900/1924 VRB03KT 9999 SCT023
TEMPO 1900/1909 3000 SHRA SCT010TCU BKN015
FM191300 10014KT 9999 SCT032
FM192300 09006KT CAVOK